createdAt,value
2022-10-13T00:01:24.797Z,34.80
2022-10-13T00:04:36.671Z,33.90
2022-10-13T00:07:48.343Z,33.23
2022-10-13T00:11:00.398Z,33.30
2022-10-13T00:14:13.516Z,34.13
2022-10-13T00:17:25.123Z,31.60
2022-10-13T00:20:36.909Z,33.23
2022-10-13T00:23:49.369Z,32.15
2022-10-13T00:27:03.322Z,31.33
2022-10-13T00:30:17.095Z,32.43
2022-10-13T00:33:29.111Z,31.58
2022-10-13T00:36:40.982Z,32.60
2022-10-13T00:39:52.695Z,30.75
2022-10-13T00:43:06.367Z,31.70
2022-10-13T00:46:18.082Z,32.40
2022-10-13T00:49:30.102Z,31.00
2022-10-13T00:52:42.844Z,31.60
2022-10-13T00:55:56.974Z,30.95
2022-10-13T00:59:10.506Z,31.58
2022-10-13T01:02:24.234Z,30.55
2022-10-13T01:05:38.989Z,31.23
2022-10-13T01:08:50.779Z,27.90
2022-10-13T01:12:11.679Z,30.48
2022-10-13T01:15:30.306Z,28.75
2022-10-13T01:18:48.421Z,28.85
2022-10-13T01:22:09.974Z,26.65
2022-10-13T01:25:33.367Z,27.83
2022-10-13T01:29:05.277Z,31.10
2022-10-13T01:32:22.747Z,33.73
2022-10-13T01:35:53.354Z,30.30
2022-10-13T01:39:10.220Z,30.98
2022-10-13T01:42:26.861Z,28.83
2022-10-13T01:45:43.041Z,32.30
2022-10-13T01:48:59.876Z,30.55
2022-10-13T01:52:18.129Z,29.80
2022-10-13T01:55:32.000Z,31.23
2022-10-13T01:58:44.814Z,30.78
2022-10-13T02:02:07.042Z,31.00
2022-10-13T02:05:26.450Z,29.43
2022-10-13T02:08:43.522Z,29.48
2022-10-13T02:15:16.927Z,30.25
2022-10-13T02:18:33.952Z,30.23
2022-10-13T02:24:56.402Z,29.83
2022-10-13T02:28:10.033Z,32.08
2022-10-13T02:31:23.573Z,30.03
2022-10-13T02:34:35.272Z,29.48
2022-10-13T02:37:46.964Z,32.55
2022-10-13T02:40:58.818Z,33.25
2022-10-13T02:44:11.408Z,35.38
2022-10-13T02:47:26.125Z,33.60
2022-10-13T02:50:37.968Z,36.70
2022-10-13T02:53:49.624Z,34.88
2022-10-13T02:57:01.250Z,34.08
2022-10-13T03:00:16.860Z,34.80
2022-10-13T03:03:28.531Z,33.73
2022-10-13T03:06:40.766Z,37.28
2022-10-13T03:09:52.598Z,36.63
2022-10-13T03:13:04.848Z,34.08
2022-10-13T03:16:16.785Z,34.03
2022-10-13T03:19:28.725Z,32.05
2022-10-13T03:22:40.977Z,32.75
2022-10-13T03:25:52.655Z,32.95
2022-10-13T03:29:04.328Z,33.45
2022-10-13T03:32:16.539Z,30.45
2022-10-13T03:35:28.393Z,33.30
2022-10-13T03:38:41.178Z,32.88
2022-10-13T03:41:53.159Z,30.45
2022-10-13T03:45:04.829Z,28.93
2022-10-13T03:48:18.406Z,30.48
2022-10-13T03:51:30.355Z,31.43
2022-10-13T03:54:41.995Z,31.28
2022-10-13T03:57:53.634Z,32.73
2022-10-13T04:01:09.976Z,32.95
2022-10-13T04:04:22.000Z,31.70
2022-10-13T04:07:34.822Z,29.50
2022-10-13T04:10:48.952Z,31.63
2022-10-13T04:14:01.457Z,28.43
2022-10-13T04:17:13.278Z,31.08
2022-10-13T04:20:25.105Z,30.25
2022-10-13T04:23:38.166Z,31.88
2022-10-13T04:26:50.513Z,28.73
2022-10-13T04:30:02.432Z,30.58
2022-10-13T04:33:14.535Z,29.23
2022-10-13T04:36:27.094Z,31.30
2022-10-13T04:39:39.143Z,32.63
2022-10-13T04:42:51.035Z,29.18
2022-10-13T04:46:08.249Z,28.95
2022-10-13T05:04:40.384Z,29.90
2022-10-13T05:07:52.256Z,30.73
2022-10-13T05:11:06.831Z,29.03
2022-10-13T05:14:21.507Z,29.88
2022-10-13T05:17:35.791Z,28.73
2022-10-13T05:20:50.183Z,36.53
2022-10-13T05:24:05.372Z,34.18
2022-10-13T05:27:20.339Z,30.33
2022-10-13T05:30:32.320Z,28.40
2022-10-13T05:33:46.065Z,29.73
2022-10-13T05:36:59.723Z,29.03
2022-10-13T05:40:15.451Z,29.65
2022-10-13T05:43:27.218Z,26.68
2022-10-13T05:46:39.890Z,26.30
2022-10-13T05:49:51.669Z,29.58
2022-10-13T05:53:04.385Z,30.55
2022-10-13T05:56:20.362Z,28.58
2022-10-13T05:59:33.642Z,37.13
2022-10-13T06:02:50.949Z,29.65
2022-10-13T06:06:03.856Z,26.75
2022-10-13T06:09:16.173Z,27.63
2022-10-13T06:12:28.797Z,27.93
2022-10-13T06:15:40.808Z,27.28
2022-10-13T06:18:53.531Z,26.95
2022-10-13T06:22:05.464Z,25.60
2022-10-13T06:25:17.972Z,26.58
2022-10-13T06:28:31.127Z,25.50
2022-10-13T06:31:42.869Z,26.53
2022-10-13T06:34:54.718Z,26.13
2022-10-13T06:38:06.354Z,27.10
2022-10-13T06:41:19.226Z,28.20
2022-10-13T06:44:31.175Z,25.50
2022-10-13T06:47:44.678Z,27.25
2022-10-13T06:50:56.929Z,25.73
2022-10-13T06:54:08.642Z,26.28
2022-10-13T06:57:20.365Z,28.28
2022-10-13T07:00:32.004Z,34.93
2022-10-13T07:03:43.843Z,29.43
2022-10-13T07:06:55.604Z,27.35
2022-10-13T07:10:09.521Z,27.40
2022-10-13T07:16:34.145Z,28.10
2022-10-13T07:19:48.705Z,29.60
2022-10-13T07:23:01.714Z,38.28
2022-10-13T07:26:17.662Z,28.33
2022-10-13T07:29:29.396Z,37.75
2022-10-13T07:32:42.404Z,28.05
2022-10-13T07:35:54.250Z,27.63
2022-10-13T07:39:06.913Z,26.20
2022-10-13T07:42:19.144Z,27.38
2022-10-13T07:45:31.349Z,27.70
2022-10-13T07:48:43.773Z,28.75
2022-10-13T07:51:55.992Z,27.98
2022-10-13T07:55:07.993Z,30.45
2022-10-13T07:58:19.659Z,32.90
2022-10-13T08:01:32.460Z,27.78
2022-10-13T08:04:44.679Z,27.95
2022-10-13T08:07:58.458Z,27.63
2022-10-13T08:11:16.190Z,29.35
2022-10-13T08:14:27.517Z,28.80
2022-10-13T08:17:39.966Z,29.40
2022-10-13T08:20:59.254Z,29.35
2022-10-13T08:24:06.294Z,27.10
2022-10-13T08:27:22.425Z,28.18
2022-10-13T08:30:34.495Z,25.13
2022-10-13T08:33:47.613Z,24.80
2022-10-13T08:37:01.086Z,44.08
2022-10-13T08:40:18.619Z,48.23
2022-10-13T08:43:32.123Z,24.60
2022-10-13T08:46:51.039Z,23.18
2022-10-13T08:50:04.337Z,22.38
2022-10-13T08:53:25.643Z,22.10
2022-10-13T08:56:40.443Z,25.70
2022-10-13T08:59:52.361Z,47.20
2022-10-13T09:03:11.924Z,25.20
2022-10-13T09:06:31.870Z,24.45
2022-10-13T09:09:44.315Z,19.88
2022-10-13T09:12:57.007Z,20.55
2022-10-13T09:16:09.347Z,21.08
2022-10-13T09:19:33.375Z,20.88
2022-10-13T09:22:46.146Z,24.43
2022-10-13T09:26:01.454Z,18.88
2022-10-13T09:29:22.131Z,18.75
2022-10-13T09:32:34.551Z,19.68
2022-10-13T09:35:50.356Z,21.18
2022-10-13T09:39:20.223Z,19.23
2022-10-13T09:42:34.961Z,19.73
2022-10-13T09:45:49.792Z,29.53
2022-10-13T09:49:07.075Z,61.85
2022-10-13T09:52:27.788Z,21.38
2022-10-13T09:55:41.948Z,17.13
2022-10-13T09:59:02.671Z,16.33
2022-10-13T10:02:31.411Z,16.30
2022-10-13T10:05:51.753Z,15.33
2022-10-13T10:09:10.146Z,15.05
2022-10-13T10:12:27.954Z,15.48
2022-10-13T10:15:49.647Z,15.23
2022-10-13T10:19:09.896Z,15.70
2022-10-13T10:22:29.716Z,16.65
2022-10-13T10:25:45.802Z,16.13
2022-10-13T10:29:26.922Z,20.70
2022-10-13T10:32:47.142Z,15.60
2022-10-13T10:36:06.039Z,16.25
2022-10-13T10:39:25.266Z,17.55
2022-10-13T10:42:52.454Z,16.83
2022-10-13T10:49:24.399Z,14.80
2022-10-13T10:52:41.712Z,15.60
2022-10-13T10:55:59.732Z,14.98
2022-10-13T10:59:30.136Z,34.90
2022-10-13T11:02:56.325Z,22.33
2022-10-13T11:06:20.631Z,16.20
2022-10-13T11:10:07.164Z,14.53
2022-10-13T11:13:26.192Z,14.48
2022-10-13T11:16:43.467Z,12.48
2022-10-13T11:19:59.353Z,13.78
2022-10-13T11:23:38.027Z,12.55
2022-10-13T11:26:51.144Z,12.65
2022-10-13T11:30:06.726Z,11.63
2022-10-13T11:34:00.127Z,11.80
2022-10-13T11:37:23.209Z,11.83
2022-10-13T11:40:43.226Z,10.83
2022-10-13T11:44:00.799Z,10.30
2022-10-13T11:47:19.846Z,10.65
2022-10-13T11:50:39.991Z,11.15
2022-10-13T11:54:00.230Z,9.70
2022-10-13T11:57:28.357Z,9.73
2022-10-13T12:00:41.884Z,9.60
2022-10-13T12:03:54.677Z,9.40
2022-10-13T12:07:11.732Z,9.50
2022-10-13T12:10:29.868Z,9.08
2022-10-13T12:13:43.784Z,8.48
2022-10-13T12:17:03.100Z,9.40
2022-10-13T12:20:30.755Z,8.55
2022-10-13T12:26:53.310Z,8.08
2022-10-13T12:30:07.678Z,8.43
2022-10-13T12:33:32.518Z,7.05
2022-10-13T12:36:44.506Z,6.93
2022-10-13T12:39:56.752Z,6.90
2022-10-13T12:43:11.905Z,7.03
2022-10-13T12:46:44.866Z,6.53
2022-10-13T12:49:56.772Z,7.50
2022-10-13T12:53:25.652Z,6.63
2022-10-13T12:56:39.363Z,6.20
2022-10-13T12:59:52.580Z,6.38
2022-10-13T13:03:06.897Z,5.95
2022-10-13T13:06:37.310Z,5.77
2022-10-13T13:09:51.076Z,5.40
2022-10-13T13:13:25.679Z,5.50
2022-10-13T13:16:37.389Z,5.60
2022-10-13T13:19:53.161Z,5.43
2022-10-13T13:23:05.722Z,6.03
2022-10-13T13:26:23.811Z,6.23
2022-10-13T13:29:35.408Z,5.68
2022-10-13T13:32:47.335Z,6.05
2022-10-13T13:35:59.388Z,5.15
2022-10-13T13:39:13.477Z,7.58
2022-10-13T13:42:27.249Z,6.65
2022-10-13T13:45:39.510Z,6.43
2022-10-13T13:48:51.926Z,6.35
2022-10-13T13:52:03.744Z,6.43
2022-10-13T13:55:25.056Z,5.28
2022-10-13T13:58:36.773Z,6.43
2022-10-13T14:01:48.542Z,6.15
2022-10-13T14:05:00.487Z,5.80
2022-10-13T14:08:14.030Z,6.00
2022-10-13T14:11:26.276Z,5.80
2022-10-13T14:14:39.196Z,6.03
2022-10-13T14:17:53.037Z,5.90
2022-10-13T14:21:08.448Z,5.50
2022-10-13T14:24:20.420Z,5.55
2022-10-13T14:27:34.134Z,7.08
2022-10-13T14:30:49.344Z,8.23
2022-10-13T14:34:01.510Z,5.90
2022-10-13T14:37:15.229Z,6.75
2022-10-13T14:40:27.372Z,6.25
2022-10-13T14:43:41.498Z,5.50
2022-10-13T14:46:53.295Z,6.55
2022-10-13T14:50:05.182Z,5.93
2022-10-13T14:53:18.003Z,6.60
2022-10-13T14:56:31.975Z,8.18
2022-10-13T14:59:43.633Z,7.38
2022-10-13T15:02:55.362Z,6.73
2022-10-13T15:06:07.837Z,7.30
2022-10-13T15:09:21.099Z,7.13
2022-10-13T15:12:33.255Z,7.38
2022-10-13T15:15:51.604Z,7.45
2022-10-13T15:19:03.956Z,7.68
2022-10-13T15:22:15.775Z,8.18
2022-10-13T15:25:27.367Z,8.25
2022-10-13T15:28:43.324Z,8.60
2022-10-13T15:31:55.250Z,8.20
2022-10-13T15:35:06.958Z,8.15
2022-10-13T15:38:18.795Z,7.25
2022-10-13T15:41:30.486Z,7.65
2022-10-13T15:45:09.529Z,7.55
2022-10-13T15:47:58.120Z,7.68
2022-10-13T15:51:14.279Z,8.00
2022-10-13T15:54:28.252Z,9.07
2022-10-13T15:57:39.886Z,9.55
2022-10-13T16:00:52.136Z,9.15
2022-10-13T16:04:04.015Z,9.05
2022-10-13T16:07:16.218Z,9.78
2022-10-13T16:10:28.204Z,10.80
2022-10-13T16:13:45.556Z,10.08
2022-10-13T16:16:59.148Z,11.30
2022-10-13T16:20:13.437Z,11.38
2022-10-13T16:23:25.121Z,10.95
2022-10-13T16:26:36.743Z,11.13
2022-10-13T16:29:48.441Z,11.63
2022-10-13T16:33:00.113Z,10.90
2022-10-13T16:36:15.430Z,10.35
2022-10-13T16:39:28.537Z,10.60
2022-10-13T16:42:41.823Z,11.48
2022-10-13T16:46:02.950Z,12.20
2022-10-13T16:49:15.651Z,11.65
2022-10-13T16:56:44.705Z,13.18
2022-10-13T16:59:58.950Z,13.30
2022-10-13T17:03:14.491Z,13.58
2022-10-13T17:06:29.043Z,14.90
2022-10-13T17:09:40.997Z,15.65
2022-10-13T17:12:52.996Z,15.78
2022-10-13T17:16:05.742Z,15.15
2022-10-13T17:19:18.100Z,16.50
2022-10-13T17:22:30.022Z,17.50
2022-10-13T17:25:42.982Z,17.28
2022-10-13T17:28:55.431Z,18.43
2022-10-13T17:32:07.330Z,17.50
2022-10-13T17:35:19.567Z,19.25
2022-10-13T17:38:31.712Z,16.93
2022-10-13T17:41:43.851Z,18.75
2022-10-13T17:44:57.589Z,17.30
2022-10-13T17:48:12.998Z,17.55
2022-10-13T17:51:25.910Z,17.20
2022-10-13T17:54:37.992Z,18.33
2022-10-13T17:57:49.884Z,18.38
2022-10-13T18:01:14.380Z,18.55
2022-10-13T18:04:23.613Z,18.60
2022-10-13T18:11:53.775Z,18.63
2022-10-13T18:15:05.708Z,20.43
2022-10-13T18:18:17.635Z,21.08
2022-10-13T18:21:30.959Z,21.15
2022-10-13T18:24:42.918Z,20.45
2022-10-13T18:27:54.827Z,21.23
2022-10-13T18:31:16.127Z,26.80
2022-10-13T18:34:28.129Z,26.68
2022-10-13T18:37:40.148Z,24.60
2022-10-13T18:40:51.921Z,24.78
2022-10-13T18:44:03.959Z,23.98
2022-10-13T18:47:15.994Z,25.28
2022-10-13T18:50:27.921Z,25.53
2022-10-13T18:53:40.639Z,27.20
2022-10-13T18:56:52.826Z,26.55
2022-10-13T19:00:06.199Z,28.53
2022-10-13T19:03:17.923Z,28.38
2022-10-13T19:06:32.883Z,28.20
2022-10-13T19:09:44.644Z,30.55
2022-10-13T19:12:56.797Z,28.90
2022-10-13T19:16:11.363Z,30.20
2022-10-13T19:19:23.277Z,40.85
2022-10-13T19:22:36.967Z,31.88
2022-10-13T19:25:50.968Z,30.70
2022-10-13T19:29:05.781Z,33.45
2022-10-13T19:32:18.100Z,32.23
2022-10-13T19:35:30.135Z,31.20
2022-10-13T19:38:42.413Z,30.88
2022-10-13T19:41:56.033Z,30.73
2022-10-13T19:45:10.988Z,30.45
2022-10-13T19:48:23.185Z,31.63
2022-10-13T19:51:35.121Z,31.88
2022-10-13T19:54:47.115Z,32.20
2022-10-13T19:57:58.829Z,34.33
2022-10-13T20:01:12.668Z,34.65
2022-10-13T20:04:25.440Z,32.50
2022-10-13T20:07:37.108Z,33.45
2022-10-13T20:10:51.167Z,34.78
2022-10-13T20:14:03.071Z,33.73
2022-10-13T20:17:14.945Z,33.38
2022-10-13T20:20:26.772Z,32.38
2022-10-13T20:23:40.684Z,31.58
2022-10-13T20:26:52.612Z,33.03
2022-10-13T20:30:06.615Z,31.50
2022-10-13T20:33:18.377Z,32.13
2022-10-13T20:36:37.480Z,31.93
2022-10-13T20:39:46.628Z,31.98
2022-10-13T20:43:00.104Z,33.20
2022-10-13T20:46:13.887Z,35.55
2022-10-13T20:49:29.245Z,36.45
2022-10-13T20:52:41.490Z,37.15
2022-10-13T20:56:02.415Z,35.30
2022-10-13T20:59:18.620Z,34.13
2022-10-13T21:02:30.297Z,36.00
2022-10-13T21:05:42.087Z,34.95
2022-10-13T21:08:54.393Z,36.90
2022-10-13T21:12:06.146Z,37.33
2022-10-13T21:15:18.810Z,37.18
2022-10-13T21:18:30.784Z,35.90
2022-10-13T21:21:43.040Z,36.20
2022-10-13T21:24:54.953Z,36.93
2022-10-13T21:28:07.377Z,37.45
2022-10-13T21:31:21.876Z,36.03
2022-10-13T21:34:33.971Z,36.35
2022-10-13T21:37:46.653Z,35.83
2022-10-13T21:40:59.501Z,35.98
2022-10-13T21:44:11.727Z,36.25
2022-10-13T21:47:23.646Z,36.53
2022-10-13T21:50:36.683Z,35.00
2022-10-13T21:53:50.996Z,35.55
2022-10-13T21:57:02.964Z,36.88
2022-10-13T22:00:22.052Z,35.50
2022-10-13T22:03:34.751Z,37.60
2022-10-13T22:06:46.901Z,36.68
2022-10-13T22:09:58.595Z,37.28
2022-10-13T22:13:10.249Z,37.98
2022-10-13T22:16:24.986Z,36.63
2022-10-13T22:19:36.907Z,36.55
2022-10-13T22:22:48.606Z,37.88
2022-10-13T22:26:00.319Z,37.93
2022-10-13T22:29:14.494Z,38.48
2022-10-13T22:32:27.717Z,38.03
2022-10-13T22:35:41.134Z,38.25
2022-10-13T22:38:54.990Z,37.38
2022-10-13T22:42:06.913Z,36.45
2022-10-13T22:45:19.562Z,36.53
2022-10-13T22:48:31.425Z,36.95
2022-10-13T22:51:43.860Z,38.93
2022-10-13T22:54:55.983Z,35.18
2022-10-13T22:58:07.729Z,36.35
2022-10-13T23:01:21.297Z,35.65
2022-10-13T23:04:33.748Z,36.83
2022-10-13T23:07:45.667Z,35.98
2022-10-13T23:10:57.605Z,35.85
2022-10-13T23:14:10.053Z,36.23
2022-10-13T23:17:22.468Z,35.80
2022-10-13T23:20:36.137Z,35.90
2022-10-13T23:23:48.960Z,34.93
2022-10-13T23:27:01.407Z,36.30
2022-10-13T23:30:17.890Z,35.93
2022-10-13T23:33:29.613Z,35.53
2022-10-13T23:36:41.353Z,34.00
2022-10-13T23:39:53.373Z,34.53
2022-10-13T23:43:05.163Z,33.53
2022-10-13T23:46:17.279Z,36.05
2022-10-13T23:49:29.145Z,33.63
2022-10-13T23:52:41.277Z,35.13
2022-10-13T23:55:53.543Z,32.60
2022-10-13T23:59:08.223Z,34.80
